createdAt,value
2023-03-19T00:01:08.906Z,11.85
2023-03-19T00:03:36.664Z,10.43
2023-03-19T00:06:04.532Z,13.77
2023-03-19T00:08:31.891Z,14.27
2023-03-19T00:10:59.405Z,13.40
2023-03-19T00:13:29.802Z,12.43
2023-03-19T00:15:59.058Z,13.30
2023-03-19T00:18:26.464Z,10.77
2023-03-19T00:20:56.110Z,10.27
2023-03-19T00:23:23.646Z,10.00
2023-03-19T00:25:51.228Z,9.05
2023-03-19T00:28:18.660Z,8.68
2023-03-19T00:30:45.978Z,8.23
2023-03-19T00:33:13.460Z,8.88
2023-03-19T00:35:41.551Z,8.57
2023-03-19T00:38:09.992Z,8.80
2023-03-19T00:40:37.491Z,8.38
2023-03-19T00:43:05.002Z,8.68
2023-03-19T00:45:32.802Z,8.35
2023-03-19T00:48:00.499Z,8.30
2023-03-19T00:50:28.114Z,8.00
2023-03-19T00:52:55.832Z,8.65
2023-03-19T00:55:32.193Z,8.32
2023-03-19T00:57:59.821Z,7.43
2023-03-19T01:00:27.780Z,6.75
2023-03-19T01:02:55.326Z,8.25
2023-03-19T01:05:22.729Z,10.68
2023-03-19T01:07:51.009Z,13.80
2023-03-19T01:10:22.333Z,10.18
2023-03-19T01:12:51.002Z,9.93
2023-03-19T01:15:19.672Z,7.53
2023-03-19T01:17:47.852Z,7.93
2023-03-19T01:20:19.210Z,7.93
2023-03-19T01:22:46.946Z,7.72
2023-03-19T01:25:14.780Z,7.55
2023-03-19T01:27:52.610Z,7.43
2023-03-19T01:30:20.968Z,8.35
2023-03-19T01:33:15.355Z,7.45
2023-03-19T01:36:04.992Z,8.82
2023-03-19T01:38:56.333Z,7.95
2023-03-19T01:41:27.630Z,6.97
2023-03-19T01:44:02.010Z,7.45
2023-03-19T01:46:39.999Z,7.25
2023-03-19T01:49:27.977Z,8.00
2023-03-19T01:52:13.838Z,9.80
2023-03-19T01:55:20.228Z,10.02
2023-03-19T01:58:09.089Z,9.52
2023-03-19T02:00:58.495Z,9.43
2023-03-19T02:03:27.397Z,9.15
2023-03-19T02:06:06.486Z,9.18
2023-03-19T02:08:36.026Z,9.80
2023-03-19T02:11:03.650Z,9.20
2023-03-19T02:13:31.299Z,8.85
2023-03-19T02:16:00.390Z,9.48
2023-03-19T02:18:28.695Z,7.07
2023-03-19T02:21:22.317Z,7.63
2023-03-19T02:24:06.566Z,6.80
2023-03-19T02:26:51.773Z,6.95
2023-03-19T02:29:19.229Z,6.47
2023-03-19T02:31:47.639Z,6.00
2023-03-19T02:34:21.396Z,7.32
2023-03-19T02:36:57.807Z,6.95
2023-03-19T02:39:38.806Z,6.65
2023-03-19T02:42:11.619Z,8.48
2023-03-19T02:44:39.289Z,6.90
2023-03-19T02:47:06.978Z,6.72
2023-03-19T02:49:34.495Z,7.60
2023-03-19T02:52:02.134Z,8.20
2023-03-19T02:54:29.647Z,7.25
2023-03-19T02:56:57.278Z,7.10
2023-03-19T02:59:24.772Z,7.45
2023-03-19T03:01:55.553Z,6.63
2023-03-19T03:04:23.750Z,7.60
2023-03-19T03:06:51.275Z,6.55
2023-03-19T03:09:19.882Z,6.65
2023-03-19T03:11:47.302Z,7.28
2023-03-19T03:14:17.662Z,7.35
2023-03-19T03:16:45.609Z,7.47
2023-03-19T03:19:13.789Z,7.05
2023-03-19T03:21:42.700Z,7.82
2023-03-19T03:24:11.216Z,7.90
2023-03-19T03:26:39.138Z,8.43
2023-03-19T03:29:07.353Z,7.82
2023-03-19T03:31:37.531Z,8.15
2023-03-19T03:34:05.237Z,8.10
2023-03-19T03:36:32.785Z,7.93
2023-03-19T03:39:04.368Z,7.85
2023-03-19T03:41:32.298Z,8.00
2023-03-19T03:44:01.549Z,8.07
2023-03-19T03:46:40.046Z,7.60
2023-03-19T03:49:07.611Z,7.90
2023-03-19T03:51:34.965Z,8.00
2023-03-19T03:54:02.734Z,7.57
2023-03-19T03:56:31.582Z,6.80
2023-03-19T03:58:59.188Z,7.07
2023-03-19T04:01:29.179Z,8.13
2023-03-19T04:06:30.255Z,6.80
2023-03-19T04:09:12.237Z,6.82
2023-03-19T04:11:41.317Z,7.07
2023-03-19T04:14:08.972Z,7.38
2023-03-19T04:16:39.012Z,6.75
2023-03-19T04:19:08.024Z,7.88
2023-03-19T04:21:35.561Z,7.35
2023-03-19T04:24:12.187Z,7.35
2023-03-19T04:26:40.025Z,8.65
2023-03-19T04:29:10.779Z,6.43
2023-03-19T04:31:38.425Z,8.32
2023-03-19T04:34:06.095Z,7.97
2023-03-19T04:36:33.850Z,6.75
2023-03-19T04:39:01.356Z,6.97
2023-03-19T04:41:29.079Z,5.95
2023-03-19T04:44:24.322Z,6.00
2023-03-19T04:46:51.785Z,5.55
2023-03-19T04:49:21.470Z,6.18
2023-03-19T04:51:50.231Z,5.90
2023-03-19T04:54:18.029Z,5.88
2023-03-19T04:56:48.442Z,6.18
2023-03-19T04:59:20.994Z,6.55
2023-03-19T05:01:50.171Z,5.97
2023-03-19T05:04:21.573Z,8.38
2023-03-19T05:06:50.507Z,9.27
2023-03-19T05:09:18.364Z,9.40
2023-03-19T05:11:45.856Z,9.30
2023-03-19T05:14:19.994Z,10.10
2023-03-19T05:17:01.910Z,10.88
2023-03-19T05:19:39.738Z,11.63
2023-03-19T05:22:11.903Z,10.38
2023-03-19T05:24:39.718Z,8.63
2023-03-19T05:27:08.757Z,8.80
2023-03-19T05:30:16.153Z,5.90
2023-03-19T05:33:05.409Z,5.22
2023-03-19T05:35:38.120Z,6.32
2023-03-19T05:38:12.592Z,5.72
2023-03-19T05:40:43.272Z,5.65
2023-03-19T05:43:21.500Z,6.05
2023-03-19T05:45:53.273Z,6.60
2023-03-19T05:48:26.358Z,6.20
2023-03-19T05:50:54.281Z,6.43
2023-03-19T05:53:23.403Z,5.78
2023-03-19T05:56:26.516Z,5.85
2023-03-19T05:59:12.656Z,6.88
2023-03-19T06:01:44.340Z,5.53
2023-03-19T06:04:15.073Z,5.65
2023-03-19T06:06:45.716Z,5.25
2023-03-19T06:09:13.304Z,4.50
2023-03-19T06:11:46.144Z,5.60
2023-03-19T06:14:35.047Z,4.10
2023-03-19T06:17:32.397Z,3.90
2023-03-19T06:22:32.282Z,3.42
2023-03-19T06:25:00.258Z,3.88
2023-03-19T06:27:28.361Z,3.38
2023-03-19T06:30:09.306Z,3.92
2023-03-19T06:32:37.583Z,3.15
2023-03-19T06:35:11.430Z,3.30
2023-03-19T06:37:39.972Z,1.80
2023-03-19T06:40:10.739Z,3.72
2023-03-19T06:42:38.587Z,1.98
2023-03-19T06:45:07.833Z,2.05
2023-03-19T06:47:35.363Z,2.58
2023-03-19T06:50:03.047Z,2.45
2023-03-19T06:52:31.529Z,2.92
2023-03-19T06:55:01.232Z,2.47
2023-03-19T06:57:28.524Z,2.42
2023-03-19T06:59:56.008Z,2.28
2023-03-19T07:02:23.519Z,2.35
2023-03-19T07:04:51.062Z,3.50
2023-03-19T07:07:19.251Z,2.50
2023-03-19T07:09:46.684Z,3.03
2023-03-19T07:12:16.625Z,3.00
2023-03-19T07:14:44.414Z,2.78
2023-03-19T07:17:11.797Z,2.65
2023-03-19T07:19:44.125Z,3.05
2023-03-19T07:22:11.973Z,2.92
2023-03-19T07:24:39.353Z,1.88
2023-03-19T07:27:06.784Z,1.52
2023-03-19T07:29:34.147Z,1.90
2023-03-19T07:32:01.663Z,2.80
2023-03-19T07:34:29.166Z,2.47
2023-03-19T07:36:56.905Z,1.52
2023-03-19T07:39:24.127Z,0.80
2023-03-19T07:41:56.437Z,2.65
2023-03-19T07:44:24.401Z,1.83
2023-03-19T07:46:51.877Z,2.45
2023-03-19T07:49:19.263Z,2.08
2023-03-19T07:51:46.652Z,1.45
2023-03-19T07:54:14.210Z,1.75
2023-03-19T07:56:41.460Z,2.42
2023-03-19T07:59:09.196Z,1.60
2023-03-19T08:01:36.609Z,2.50
2023-03-19T08:04:04.223Z,1.85
2023-03-19T08:06:38.851Z,2.10
2023-03-19T08:09:07.118Z,2.20
2023-03-19T08:11:34.419Z,2.35
2023-03-19T08:14:02.363Z,2.38
2023-03-19T08:16:29.716Z,2.15
2023-03-19T08:18:57.145Z,1.42
2023-03-19T08:21:24.465Z,2.58
2023-03-19T08:23:52.803Z,2.00
2023-03-19T08:26:20.154Z,2.00
2023-03-19T08:28:47.437Z,2.25
2023-03-19T08:31:15.128Z,3.30
2023-03-19T08:33:42.578Z,2.40
2023-03-19T08:36:12.296Z,2.85
2023-03-19T08:38:40.038Z,2.45
2023-03-19T08:41:09.224Z,1.88
2023-03-19T08:43:39.255Z,2.35
2023-03-19T08:46:06.947Z,2.65
2023-03-19T08:48:34.430Z,1.90
2023-03-19T08:51:03.568Z,2.50
2023-03-19T08:53:31.872Z,2.75
2023-03-19T08:56:04.581Z,1.50
2023-03-19T08:58:35.044Z,2.55
2023-03-19T09:01:03.728Z,1.80
2023-03-19T09:03:32.187Z,0.63
2023-03-19T09:06:01.497Z,1.63
2023-03-19T09:08:31.011Z,1.42
2023-03-19T09:10:59.282Z,1.98
2023-03-19T09:13:29.385Z,2.17
2023-03-19T09:15:58.663Z,1.88
2023-03-19T09:18:26.152Z,2.25
2023-03-19T09:20:54.357Z,1.73
2023-03-19T09:23:22.430Z,1.55
2023-03-19T09:25:50.129Z,2.22
2023-03-19T09:28:21.006Z,0.77
2023-03-19T09:30:49.741Z,1.50
2023-03-19T09:33:19.134Z,1.75
2023-03-19T09:35:52.981Z,1.88
2023-03-19T09:38:26.199Z,2.10
2023-03-19T09:41:10.302Z,1.40
2023-03-19T09:43:56.677Z,2.20
2023-03-19T09:46:32.767Z,1.85
2023-03-19T09:49:09.127Z,1.90
2023-03-19T09:51:41.866Z,1.58
2023-03-19T09:54:27.440Z,1.35
2023-03-19T09:56:56.002Z,1.40
2023-03-19T09:59:25.185Z,1.63
2023-03-19T10:02:29.350Z,1.20
2023-03-19T10:05:19.124Z,2.10
2023-03-19T10:08:11.347Z,1.40
2023-03-19T10:10:50.878Z,2.50
2023-03-19T10:13:55.498Z,2.38
2023-03-19T10:16:26.562Z,1.50
2023-03-19T10:18:58.707Z,1.80
2023-03-19T10:21:45.145Z,1.70
2023-03-19T10:24:34.691Z,1.73
2023-03-19T10:27:10.910Z,1.08
2023-03-19T10:29:40.029Z,1.73
2023-03-19T10:32:09.383Z,1.80
2023-03-19T10:34:43.434Z,1.80
2023-03-19T10:37:17.352Z,1.60
2023-03-19T10:39:46.489Z,1.50
2023-03-19T10:42:41.762Z,2.10
2023-03-19T10:45:29.157Z,1.60
2023-03-19T10:47:57.745Z,1.58
2023-03-19T10:50:48.398Z,1.40
2023-03-19T10:53:15.729Z,1.58
2023-03-19T10:55:54.146Z,1.52
2023-03-19T10:58:28.908Z,1.50
2023-03-19T11:00:59.385Z,1.30
2023-03-19T11:03:33.011Z,1.33
2023-03-19T11:06:11.088Z,1.52
2023-03-19T11:08:39.144Z,1.52
2023-03-19T11:11:06.585Z,1.75
2023-03-19T11:13:36.342Z,0.80
2023-03-19T11:16:10.935Z,1.90
2023-03-19T11:18:40.398Z,1.50
2023-03-19T11:21:29.804Z,1.40
2023-03-19T11:24:03.491Z,1.77
2023-03-19T11:26:31.433Z,1.60
2023-03-19T11:29:09.268Z,1.40
2023-03-19T11:31:39.747Z,1.75
2023-03-19T11:34:50.286Z,1.25
2023-03-19T11:37:33.628Z,0.93
2023-03-19T11:40:17.825Z,2.25
2023-03-19T11:43:03.934Z,1.40
2023-03-19T11:46:05.293Z,1.75
2023-03-19T11:48:47.957Z,1.67
2023-03-19T11:51:31.027Z,1.25
2023-03-19T11:54:04.611Z,1.40
2023-03-19T11:56:42.432Z,1.52
2023-03-19T11:59:24.089Z,1.80
2023-03-19T12:02:16.252Z,1.30
2023-03-19T12:04:59.551Z,1.52
2023-03-19T12:07:32.877Z,1.38
2023-03-19T12:10:33.768Z,1.77
2023-03-19T12:13:11.090Z,2.05
2023-03-19T12:16:01.883Z,1.27
2023-03-19T12:18:41.101Z,1.35
2023-03-19T12:21:50.825Z,1.70
2023-03-19T12:24:26.202Z,1.95
2023-03-19T12:27:22.314Z,2.03
2023-03-19T12:30:07.226Z,1.98
2023-03-19T12:32:46.643Z,2.30
2023-03-19T12:35:24.698Z,2.58
2023-03-19T12:38:00.882Z,2.63
2023-03-19T12:40:45.865Z,2.22
2023-03-19T12:43:33.782Z,2.00
2023-03-19T12:46:18.859Z,1.88
2023-03-19T12:48:53.006Z,2.47
2023-03-19T12:51:26.839Z,2.00
2023-03-19T12:54:09.826Z,2.13
2023-03-19T12:56:55.845Z,2.10
2023-03-19T12:59:48.289Z,1.77
2023-03-19T13:02:22.553Z,1.67
2023-03-19T13:15:05.115Z,1.98
2023-03-19T13:26:55.263Z,1.50
2023-03-19T14:15:53.238Z,1.70
2023-03-19T15:56:25.639Z,3.00
2023-03-19T15:58:58.704Z,2.60
2023-03-19T16:01:36.161Z,2.80
2023-03-19T16:04:11.289Z,2.28
2023-03-19T16:06:40.570Z,3.33
2023-03-19T16:09:37.074Z,3.45
2023-03-19T16:12:26.746Z,4.35
2023-03-19T16:14:55.012Z,9.50
2023-03-19T16:17:34.272Z,7.78
2023-03-19T16:20:07.966Z,6.22
2023-03-19T16:22:36.950Z,5.40
2023-03-19T16:25:12.543Z,4.38
2023-03-19T16:28:00.519Z,3.15
2023-03-19T16:30:31.470Z,2.80
2023-03-19T16:33:05.400Z,2.58
2023-03-19T16:35:39.706Z,2.67
2023-03-19T16:38:26.586Z,2.80
2023-03-19T16:41:33.154Z,3.00
2023-03-19T16:44:21.811Z,3.95
2023-03-19T16:46:49.993Z,6.07
2023-03-19T16:49:21.585Z,5.85
2023-03-19T16:51:50.387Z,5.00
2023-03-19T16:54:18.744Z,4.32
2023-03-19T16:56:47.362Z,4.85
2023-03-19T16:59:30.266Z,5.25
2023-03-19T17:02:19.522Z,5.55
2023-03-19T17:04:48.356Z,4.82
2023-03-19T17:07:18.136Z,4.30
2023-03-19T17:09:47.234Z,5.15
2023-03-19T17:12:18.332Z,5.80
2023-03-19T17:14:49.922Z,6.28
2023-03-19T17:17:22.844Z,5.43
2023-03-19T17:19:53.287Z,4.70
2023-03-19T17:22:21.485Z,4.53
2023-03-19T17:24:50.663Z,6.05
2023-03-19T17:27:21.646Z,6.38
2023-03-19T17:29:50.576Z,6.20
2023-03-19T17:32:22.263Z,5.93
2023-03-19T17:34:51.031Z,5.13
2023-03-19T17:37:19.512Z,4.80
2023-03-19T17:39:48.700Z,5.47
2023-03-19T17:42:20.921Z,6.20
2023-03-19T17:44:49.718Z,8.15
2023-03-19T17:47:21.888Z,7.90
2023-03-19T17:49:50.714Z,9.85
2023-03-19T17:52:20.765Z,8.90
2023-03-19T17:54:49.142Z,8.07
2023-03-19T17:57:19.442Z,8.35
2023-03-19T17:59:48.478Z,8.63
2023-03-19T18:02:29.482Z,7.20
2023-03-19T18:04:59.357Z,8.70
2023-03-19T18:07:28.255Z,7.78
2023-03-19T18:09:56.911Z,7.65
2023-03-19T18:12:26.646Z,7.00
2023-03-19T18:14:55.074Z,8.18
2023-03-19T18:17:26.207Z,6.18
2023-03-19T18:19:58.217Z,10.77
2023-03-19T18:22:28.059Z,18.42
2023-03-19T18:24:58.341Z,16.13
2023-03-19T18:27:26.555Z,13.93
2023-03-19T18:29:55.229Z,14.80
2023-03-19T18:32:35.986Z,14.52
2023-03-19T18:35:05.001Z,15.13
2023-03-19T18:37:35.449Z,14.52
2023-03-19T18:40:05.751Z,13.37
2023-03-19T18:42:33.836Z,12.73
2023-03-19T18:45:06.602Z,13.80
2023-03-19T18:47:35.762Z,12.38
2023-03-19T18:50:11.018Z,14.60
2023-03-19T18:52:41.928Z,14.00
2023-03-19T18:55:13.021Z,13.20
2023-03-19T18:57:53.255Z,13.77
2023-03-19T19:00:27.052Z,12.80
2023-03-19T19:02:57.347Z,12.35
2023-03-19T19:05:31.654Z,12.18
2023-03-19T19:08:02.418Z,12.60
2023-03-19T19:10:34.873Z,11.50
2023-03-19T19:13:14.539Z,11.38
2023-03-19T19:15:42.781Z,11.98
2023-03-19T19:18:21.946Z,12.38
2023-03-19T19:20:56.002Z,14.98
2023-03-19T19:23:27.437Z,15.93
2023-03-19T19:25:57.186Z,14.20
2023-03-19T19:28:34.389Z,14.50
2023-03-19T19:31:03.693Z,14.45
2023-03-19T19:33:36.370Z,13.90
2023-03-19T19:38:33.440Z,15.60
2023-03-19T19:41:03.132Z,13.85
2023-03-19T19:43:35.428Z,16.15
2023-03-19T19:46:04.735Z,15.20
2023-03-19T19:48:33.393Z,15.77
2023-03-19T19:51:01.740Z,22.98
2023-03-19T19:53:33.374Z,22.08
2023-03-19T19:56:07.840Z,17.65
2023-03-19T19:58:37.690Z,14.77
2023-03-19T20:01:30.521Z,14.07
2023-03-19T20:04:04.940Z,14.82
2023-03-19T20:06:34.180Z,15.40
2023-03-19T20:09:05.490Z,16.17
2023-03-19T20:11:34.589Z,16.58
2023-03-19T20:14:02.903Z,15.27
2023-03-19T20:16:31.077Z,14.82
2023-03-19T20:19:00.601Z,15.40
2023-03-19T20:21:30.527Z,14.77
2023-03-19T20:24:02.591Z,15.55
2023-03-19T20:26:31.168Z,15.02
2023-03-19T20:29:00.100Z,15.07
2023-03-19T20:31:34.266Z,15.52
2023-03-19T20:34:09.385Z,14.73
2023-03-19T20:36:40.820Z,13.70
2023-03-19T20:39:17.001Z,11.93
2023-03-19T20:41:51.356Z,11.88
2023-03-19T20:44:26.307Z,11.70
2023-03-19T20:47:00.592Z,12.40
2023-03-19T20:49:31.561Z,11.50
2023-03-19T20:52:02.798Z,11.63
2023-03-19T20:54:35.608Z,11.27
2023-03-19T20:57:04.617Z,11.25
2023-03-19T20:59:37.921Z,10.52
2023-03-19T21:02:17.388Z,10.82
2023-03-19T21:04:49.444Z,9.95
2023-03-19T21:07:27.177Z,11.48
2023-03-19T21:09:58.008Z,10.32
2023-03-19T21:12:32.955Z,9.98
2023-03-19T21:15:02.496Z,10.23
2023-03-19T21:17:30.941Z,10.50
2023-03-19T21:19:59.110Z,9.98
2023-03-19T21:22:30.236Z,9.35
2023-03-19T21:25:05.639Z,9.43
2023-03-19T21:27:38.210Z,9.13
2023-03-19T21:30:08.710Z,9.15
2023-03-19T21:32:40.358Z,9.05
2023-03-19T21:35:20.151Z,9.50
2023-03-19T21:37:53.034Z,8.15
2023-03-19T21:40:25.808Z,8.82
2023-03-19T21:45:38.150Z,11.32
2023-03-19T21:48:25.419Z,10.90
2023-03-19T21:50:53.409Z,11.38
2023-03-19T21:53:21.758Z,11.43
2023-03-19T21:55:51.251Z,11.00
2023-03-19T21:58:25.725Z,9.98
2023-03-19T22:00:53.028Z,9.02
2023-03-19T22:03:21.988Z,9.18
2023-03-19T22:05:51.406Z,9.63
2023-03-19T22:08:22.846Z,10.02
2023-03-19T22:11:03.047Z,10.00
2023-03-19T22:13:35.475Z,9.30
2023-03-19T22:16:02.928Z,8.60
2023-03-19T22:18:30.423Z,7.95
2023-03-19T22:20:59.558Z,9.30
2023-03-19T22:23:27.530Z,9.15
2023-03-19T22:25:55.058Z,9.43
2023-03-19T22:28:25.177Z,8.57
2023-03-19T22:30:52.918Z,9.93
2023-03-19T22:33:22.646Z,8.65
2023-03-19T22:35:51.279Z,9.10
2023-03-19T22:38:20.498Z,8.65
2023-03-19T22:40:56.790Z,8.80
2023-03-19T22:43:50.536Z,9.98
2023-03-19T22:46:21.843Z,9.50
2023-03-19T22:48:52.823Z,8.27
2023-03-19T22:51:25.843Z,8.60
2023-03-19T22:53:54.366Z,7.90
2023-03-19T22:56:22.440Z,8.52
2023-03-19T22:58:50.866Z,8.60
2023-03-19T23:01:22.617Z,8.75
2023-03-19T23:03:51.146Z,9.57
2023-03-19T23:06:30.876Z,8.95
2023-03-19T23:08:58.916Z,9.02
2023-03-19T23:11:27.264Z,8.88
2023-03-19T23:13:56.554Z,8.93
2023-03-19T23:16:25.396Z,9.20
2023-03-19T23:21:23.882Z,8.98
2023-03-19T23:23:57.007Z,9.25
2023-03-19T23:26:26.159Z,10.25
2023-03-19T23:28:54.695Z,10.40
2023-03-19T23:31:22.201Z,9.13
2023-03-19T23:33:50.098Z,10.10
2023-03-19T23:36:18.346Z,10.57
2023-03-19T23:38:46.879Z,11.20
2023-03-19T23:41:28.119Z,9.73
2023-03-19T23:44:01.722Z,9.18
2023-03-19T23:46:35.561Z,9.30
2023-03-19T23:49:03.260Z,9.20
2023-03-19T23:51:30.850Z,9.80
2023-03-19T23:53:58.141Z,11.10
2023-03-19T23:56:27.306Z,10.23
